sensor_id;sensor_type;location;lat;lon;timestamp;temperature;humidity
3256;DHT22;1640;48.504;9.224;2023-01-24T00:00:38;2.10;99.90
3256;DHT22;1640;48.504;9.224;2023-01-24T00:03:07;2.20;99.90
3256;DHT22;1640;48.504;9.224;2023-01-24T00:05:37;2.10;99.90
3256;DHT22;1640;48.504;9.224;2023-01-24T00:08:05;2.10;99.90
3256;DHT22;1640;48.504;9.224;2023-01-24T00:10:32;2.20;99.90
3256;DHT22;1640;48.504;9.224;2023-01-24T00:13:00;2.20;99.90
3256;DHT22;1640;48.504;9.224;2023-01-24T00:15:27;2.20;99.90
3256;DHT22;1640;48.504;9.224;2023-01-24T00:17:55;2.10;99.90
3256;DHT22;1640;48.504;9.224;2023-01-24T00:20:24;2.20;99.90
3256;DHT22;1640;48.504;9.224;2023-01-24T00:22:51;2.20;99.90
3256;DHT22;1640;48.504;9.224;2023-01-24T00:25:18;2.10;99.90
3256;DHT22;1640;48.504;9.224;2023-01-24T00:27:46;2.20;99.90
3256;DHT22;1640;48.504;9.224;2023-01-24T00:30:14;2.20;99.90
3256;DHT22;1640;48.504;9.224;2023-01-24T00:32:41;2.10;99.90
3256;DHT22;1640;48.504;9.224;2023-01-24T00:35:09;2.10;99.90
3256;DHT22;1640;48.504;9.224;2023-01-24T00:37:37;2.10;99.90
3256;DHT22;1640;48.504;9.224;2023-01-24T00:40:06;2.10;99.90
3256;DHT22;1640;48.504;9.224;2023-01-24T00:42:34;2.10;99.90
3256;DHT22;1640;48.504;9.224;2023-01-24T00:45:01;2.10;99.90
3256;DHT22;1640;48.504;9.224;2023-01-24T00:47:29;2.10;99.90
3256;DHT22;1640;48.504;9.224;2023-01-24T00:49:56;2.10;99.90
3256;DHT22;1640;48.504;9.224;2023-01-24T00:52:23;2.10;99.90
3256;DHT22;1640;48.504;9.224;2023-01-24T00:54:52;2.00;99.90
3256;DHT22;1640;48.504;9.224;2023-01-24T00:57:20;2.00;99.90
3256;DHT22;1640;48.504;9.224;2023-01-24T00:59:48;2.10;99.90
3256;DHT22;1640;48.504;9.224;2023-01-24T01:02:15;2.00;99.90
3256;DHT22;1640;48.504;9.224;2023-01-24T01:04:43;2.10;99.90
3256;DHT22;1640;48.504;9.224;2023-01-24T01:07:10;2.10;99.90
3256;DHT22;1640;48.504;9.224;2023-01-24T01:09:38;2.10;99.90
3256;DHT22;1640;48.504;9.224;2023-01-24T01:12:07;2.10;99.90
3256;DHT22;1640;48.504;9.224;2023-01-24T01:14:34;2.10;99.90
3256;DHT22;1640;48.504;9.224;2023-01-24T01:17:02;2.10;99.90
3256;DHT22;1640;48.504;9.224;2023-01-24T01:19:29;2.00;99.90
3256;DHT22;1640;48.504;9.224;2023-01-24T01:21:57;2.10;99.90
3256;DHT22;1640;48.504;9.224;2023-01-24T01:24:24;2.10;99.90
3256;DHT22;1640;48.504;9.224;2023-01-24T01:26:52;2.20;99.90
3256;DHT22;1640;48.504;9.224;2023-01-24T01:29:20;2.10;99.90
3256;DHT22;1640;48.504;9.224;2023-01-24T01:31:48;2.10;99.90
3256;DHT22;1640;48.504;9.224;2023-01-24T01:34:17;2.10;99.90
3256;DHT22;1640;48.504;9.224;2023-01-24T01:36:44;2.00;99.90
3256;DHT22;1640;48.504;9.224;2023-01-24T01:39:12;2.00;99.90
3256;DHT22;1640;48.504;9.224;2023-01-24T01:41:39;2.00;99.90
3256;DHT22;1640;48.504;9.224;2023-01-24T01:44:22;2.00;99.90
3256;DHT22;1640;48.504;9.224;2023-01-24T01:47:17;2.00;99.90
3256;DHT22;1640;48.504;9.224;2023-01-24T01:49:49;2.00;99.90
3256;DHT22;1640;48.504;9.224;2023-01-24T01:52:17;2.00;99.90
3256;DHT22;1640;48.504;9.224;2023-01-24T01:54:46;2.00;99.90
3256;DHT22;1640;48.504;9.224;2023-01-24T01:57:18;1.90;99.90
3256;DHT22;1640;48.504;9.224;2023-01-24T01:59:51;1.90;99.90
3256;DHT22;1640;48.504;9.224;2023-01-24T02:02:21;1.90;99.90
3256;DHT22;1640;48.504;9.224;2023-01-24T02:04:52;1.90;99.90
3256;DHT22;1640;48.504;9.224;2023-01-24T02:07:23;1.90;99.90
3256;DHT22;1640;48.504;9.224;2023-01-24T02:09:53;1.90;99.90
3256;DHT22;1640;48.504;9.224;2023-01-24T02:12:21;1.90;99.90
3256;DHT22;1640;48.504;9.224;2023-01-24T02:14:54;1.90;99.90
3256;DHT22;1640;48.504;9.224;2023-01-24T02:17:40;1.90;99.90
3256;DHT22;1640;48.504;9.224;2023-01-24T02:20:21;1.90;99.90
3256;DHT22;1640;48.504;9.224;2023-01-24T02:22:59;1.90;99.90
3256;DHT22;1640;48.504;9.224;2023-01-24T02:25:31;1.90;99.90
3256;DHT22;1640;48.504;9.224;2023-01-24T02:28:04;1.90;99.90
3256;DHT22;1640;48.504;9.224;2023-01-24T02:30:33;2.00;99.90
3256;DHT22;1640;48.504;9.224;2023-01-24T02:33:09;1.90;99.90
3256;DHT22;1640;48.504;9.224;2023-01-24T02:35:37;1.90;99.90
3256;DHT22;1640;48.504;9.224;2023-01-24T02:38:06;1.90;99.90
3256;DHT22;1640;48.504;9.224;2023-01-24T02:40:38;1.90;99.90
3256;DHT22;1640;48.504;9.224;2023-01-24T02:43:07;1.90;99.90
3256;DHT22;1640;48.504;9.224;2023-01-24T02:45:36;1.80;99.90
3256;DHT22;1640;48.504;9.224;2023-01-24T02:48:04;1.80;99.90
3256;DHT22;1640;48.504;9.224;2023-01-24T02:50:32;1.90;99.90
3256;DHT22;1640;48.504;9.224;2023-01-24T02:53:20;1.80;99.90
3256;DHT22;1640;48.504;9.224;2023-01-24T02:55:55;1.80;99.90
3256;DHT22;1640;48.504;9.224;2023-01-24T02:58:42;1.90;99.90
3256;DHT22;1640;48.504;9.224;2023-01-24T03:01:10;1.80;99.90
3256;DHT22;1640;48.504;9.224;2023-01-24T03:03:37;1.90;99.90
3256;DHT22;1640;48.504;9.224;2023-01-24T03:06:05;1.90;99.90
3256;DHT22;1640;48.504;9.224;2023-01-24T03:08:33;1.80;99.90
3256;DHT22;1640;48.504;9.224;2023-01-24T03:11:02;1.80;99.90
3256;DHT22;1640;48.504;9.224;2023-01-24T03:13:30;1.90;99.90
3256;DHT22;1640;48.504;9.224;2023-01-24T03:16:17;1.80;99.90
3256;DHT22;1640;48.504;9.224;2023-01-24T03:19:02;1.80;99.90
3256;DHT22;1640;48.504;9.224;2023-01-24T03:21:47;1.90;99.90
3256;DHT22;1640;48.504;9.224;2023-01-24T03:24:32;1.80;99.90
3256;DHT22;1640;48.504;9.224;2023-01-24T03:27:17;1.90;99.90
3256;DHT22;1640;48.504;9.224;2023-01-24T03:30:08;1.80;99.90
3256;DHT22;1640;48.504;9.224;2023-01-24T03:32:59;1.90;99.90
3256;DHT22;1640;48.504;9.224;2023-01-24T03:35:44;1.90;99.90
3256;DHT22;1640;48.504;9.224;2023-01-24T03:38:20;1.90;99.90
3256;DHT22;1640;48.504;9.224;2023-01-24T03:41:06;1.90;99.90
3256;DHT22;1640;48.504;9.224;2023-01-24T03:43:33;2.00;99.90
3256;DHT22;1640;48.504;9.224;2023-01-24T03:46:01;2.00;99.90
3256;DHT22;1640;48.504;9.224;2023-01-24T03:48:30;2.00;99.90
3256;DHT22;1640;48.504;9.224;2023-01-24T03:51:02;2.00;99.90
3256;DHT22;1640;48.504;9.224;2023-01-24T03:53:47;2.00;99.90
3256;DHT22;1640;48.504;9.224;2023-01-24T03:56:15;2.00;99.90
3256;DHT22;1640;48.504;9.224;2023-01-24T03:58:42;2.00;99.90
3256;DHT22;1640;48.504;9.224;2023-01-24T04:01:10;2.00;99.90
3256;DHT22;1640;48.504;9.224;2023-01-24T04:03:38;1.90;99.90
3256;DHT22;1640;48.504;9.224;2023-01-24T04:06:06;1.80;99.90
3256;DHT22;1640;48.504;9.224;2023-01-24T04:08:33;1.70;99.90
3256;DHT22;1640;48.504;9.224;2023-01-24T04:11:01;1.80;99.90
3256;DHT22;1640;48.504;9.224;2023-01-24T04:13:28;1.90;99.90
3256;DHT22;1640;48.504;9.224;2023-01-24T04:15:56;1.80;99.90
3256;DHT22;1640;48.504;9.224;2023-01-24T04:18:23;1.70;99.90
3256;DHT22;1640;48.504;9.224;2023-01-24T04:20:52;1.70;99.90
3256;DHT22;1640;48.504;9.224;2023-01-24T04:23:19;1.70;99.90
3256;DHT22;1640;48.504;9.224;2023-01-24T04:25:50;1.70;99.90
3256;DHT22;1640;48.504;9.224;2023-01-24T04:28:20;1.70;99.90
3256;DHT22;1640;48.504;9.224;2023-01-24T04:30:48;1.80;99.90
3256;DHT22;1640;48.504;9.224;2023-01-24T04:33:16;1.70;99.90
3256;DHT22;1640;48.504;9.224;2023-01-24T04:35:43;1.70;99.90
3256;DHT22;1640;48.504;9.224;2023-01-24T04:38:12;1.80;99.90
3256;DHT22;1640;48.504;9.224;2023-01-24T04:40:40;1.80;99.90
3256;DHT22;1640;48.504;9.224;2023-01-24T04:43:07;1.80;99.90
3256;DHT22;1640;48.504;9.224;2023-01-24T04:45:35;1.90;99.90
3256;DHT22;1640;48.504;9.224;2023-01-24T04:48:02;1.90;99.90
3256;DHT22;1640;48.504;9.224;2023-01-24T04:50:30;1.80;99.90
3256;DHT22;1640;48.504;9.224;2023-01-24T04:52:57;1.80;99.90
3256;DHT22;1640;48.504;9.224;2023-01-24T04:55:26;1.70;99.90
3256;DHT22;1640;48.504;9.224;2023-01-24T04:57:53;1.80;99.90
3256;DHT22;1640;48.504;9.224;2023-01-24T05:00:21;1.90;99.90
3256;DHT22;1640;48.504;9.224;2023-01-24T05:02:50;1.80;99.90
3256;DHT22;1640;48.504;9.224;2023-01-24T05:05:17;1.90;99.90
3256;DHT22;1640;48.504;9.224;2023-01-24T05:07:45;1.90;99.90
3256;DHT22;1640;48.504;9.224;2023-01-24T05:10:12;1.90;99.90
3256;DHT22;1640;48.504;9.224;2023-01-24T05:12:41;1.90;99.90
3256;DHT22;1640;48.504;9.224;2023-01-24T05:15:09;1.90;99.90
3256;DHT22;1640;48.504;9.224;2023-01-24T05:17:36;1.90;99.90
3256;DHT22;1640;48.504;9.224;2023-01-24T05:20:05;1.90;99.90
3256;DHT22;1640;48.504;9.224;2023-01-24T05:22:32;2.00;99.90
3256;DHT22;1640;48.504;9.224;2023-01-24T05:24:59;2.00;99.90
3256;DHT22;1640;48.504;9.224;2023-01-24T05:27:27;1.90;99.90
3256;DHT22;1640;48.504;9.224;2023-01-24T05:29:56;1.90;99.90
3256;DHT22;1640;48.504;9.224;2023-01-24T05:32:23;1.90;99.90
3256;DHT22;1640;48.504;9.224;2023-01-24T05:34:50;1.90;99.90
3256;DHT22;1640;48.504;9.224;2023-01-24T05:37:18;1.90;99.90
3256;DHT22;1640;48.504;9.224;2023-01-24T05:39:45;1.90;99.90
3256;DHT22;1640;48.504;9.224;2023-01-24T05:42:13;1.80;99.90
3256;DHT22;1640;48.504;9.224;2023-01-24T05:44:40;1.80;99.90
3256;DHT22;1640;48.504;9.224;2023-01-24T05:47:09;1.90;99.90
3256;DHT22;1640;48.504;9.224;2023-01-24T05:49:36;1.80;99.90
3256;DHT22;1640;48.504;9.224;2023-01-24T05:52:04;1.80;99.90
3256;DHT22;1640;48.504;9.224;2023-01-24T05:54:31;1.80;99.90
3256;DHT22;1640;48.504;9.224;2023-01-24T05:56:59;1.80;99.90
3256;DHT22;1640;48.504;9.224;2023-01-24T05:59:26;1.80;99.90
3256;DHT22;1640;48.504;9.224;2023-01-24T06:01:54;1.80;99.90
3256;DHT22;1640;48.504;9.224;2023-01-24T06:04:23;1.80;99.90
3256;DHT22;1640;48.504;9.224;2023-01-24T06:06:50;1.80;99.90
3256;DHT22;1640;48.504;9.224;2023-01-24T06:09:18;1.80;99.90
3256;DHT22;1640;48.504;9.224;2023-01-24T06:11:45;1.80;99.90
3256;DHT22;1640;48.504;9.224;2023-01-24T06:14:12;1.80;99.90
3256;DHT22;1640;48.504;9.224;2023-01-24T06:16:40;1.80;99.90
3256;DHT22;1640;48.504;9.224;2023-01-24T06:19:10;1.90;99.90
3256;DHT22;1640;48.504;9.224;2023-01-24T06:21:43;1.80;99.90
3256;DHT22;1640;48.504;9.224;2023-01-24T06:24:16;1.80;99.90
3256;DHT22;1640;48.504;9.224;2023-01-24T06:26:45;1.80;99.90
3256;DHT22;1640;48.504;9.224;2023-01-24T06:29:14;1.80;99.90
3256;DHT22;1640;48.504;9.224;2023-01-24T06:31:47;1.80;99.90
3256;DHT22;1640;48.504;9.224;2023-01-24T06:34:26;1.80;99.90
3256;DHT22;1640;48.504;9.224;2023-01-24T06:37:04;1.80;99.90
3256;DHT22;1640;48.504;9.224;2023-01-24T06:39:35;1.80;99.90
3256;DHT22;1640;48.504;9.224;2023-01-24T06:42:03;1.90;99.90
3256;DHT22;1640;48.504;9.224;2023-01-24T06:44:31;1.80;99.90
3256;DHT22;1640;48.504;9.224;2023-01-24T06:46:58;1.80;99.90
3256;DHT22;1640;48.504;9.224;2023-01-24T06:49:26;1.80;99.90
3256;DHT22;1640;48.504;9.224;2023-01-24T06:51:53;1.80;99.90
3256;DHT22;1640;48.504;9.224;2023-01-24T06:54:22;1.80;99.90
3256;DHT22;1640;48.504;9.224;2023-01-24T06:56:49;1.80;99.90
3256;DHT22;1640;48.504;9.224;2023-01-24T06:59:17;1.80;99.90
3256;DHT22;1640;48.504;9.224;2023-01-24T07:01:45;1.70;99.90
3256;DHT22;1640;48.504;9.224;2023-01-24T07:04:13;1.70;99.90
3256;DHT22;1640;48.504;9.224;2023-01-24T07:06:40;1.70;99.90
3256;DHT22;1640;48.504;9.224;2023-01-24T07:09:08;1.70;99.90
3256;DHT22;1640;48.504;9.224;2023-01-24T07:11:36;1.70;99.90
3256;DHT22;1640;48.504;9.224;2023-01-24T07:14:04;1.80;99.90
3256;DHT22;1640;48.504;9.224;2023-01-24T07:16:32;1.80;99.90
3256;DHT22;1640;48.504;9.224;2023-01-24T07:18:59;1.80;99.90
3256;DHT22;1640;48.504;9.224;2023-01-24T07:21:27;1.80;99.90
3256;DHT22;1640;48.504;9.224;2023-01-24T07:23:56;1.90;99.90
3256;DHT22;1640;48.504;9.224;2023-01-24T07:26:25;1.90;99.90
3256;DHT22;1640;48.504;9.224;2023-01-24T07:28:54;1.90;99.90
3256;DHT22;1640;48.504;9.224;2023-01-24T07:31:21;1.80;99.90
3256;DHT22;1640;48.504;9.224;2023-01-24T07:33:49;1.90;99.90
3256;DHT22;1640;48.504;9.224;2023-01-24T07:36:16;1.90;99.90
3256;DHT22;1640;48.504;9.224;2023-01-24T07:38:44;2.00;99.90
3256;DHT22;1640;48.504;9.224;2023-01-24T07:41:11;1.90;99.90
3256;DHT22;1640;48.504;9.224;2023-01-24T07:43:40;1.90;99.90
3256;DHT22;1640;48.504;9.224;2023-01-24T07:46:08;1.90;99.90
3256;DHT22;1640;48.504;9.224;2023-01-24T07:48:36;2.00;99.90
3256;DHT22;1640;48.504;9.224;2023-01-24T07:51:04;1.90;99.90
3256;DHT22;1640;48.504;9.224;2023-01-24T07:53:31;1.90;99.90
3256;DHT22;1640;48.504;9.224;2023-01-24T07:55:59;2.00;99.90
3256;DHT22;1640;48.504;9.224;2023-01-24T07:58:27;1.90;99.90
3256;DHT22;1640;48.504;9.224;2023-01-24T08:00:55;2.00;99.90
3256;DHT22;1640;48.504;9.224;2023-01-24T08:03:24;1.90;99.90
3256;DHT22;1640;48.504;9.224;2023-01-24T08:05:51;1.90;99.90
3256;DHT22;1640;48.504;9.224;2023-01-24T08:08:19;2.00;99.90
3256;DHT22;1640;48.504;9.224;2023-01-24T08:10:46;2.00;99.90
3256;DHT22;1640;48.504;9.224;2023-01-24T08:13:14;2.10;99.90
3256;DHT22;1640;48.504;9.224;2023-01-24T08:15:41;2.10;99.90
3256;DHT22;1640;48.504;9.224;2023-01-24T08:18:09;2.20;99.90
3256;DHT22;1640;48.504;9.224;2023-01-24T08:20:37;2.20;99.90
3256;DHT22;1640;48.504;9.224;2023-01-24T08:23:05;2.20;99.90
3256;DHT22;1640;48.504;9.224;2023-01-24T08:25:32;2.30;99.90
3256;DHT22;1640;48.504;9.224;2023-01-24T08:28:00;2.30;99.90
3256;DHT22;1640;48.504;9.224;2023-01-24T08:30:27;2.30;99.90
3256;DHT22;1640;48.504;9.224;2023-01-24T08:33:01;2.40;99.90
3256;DHT22;1640;48.504;9.224;2023-01-24T08:35:30;2.40;99.90
3256;DHT22;1640;48.504;9.224;2023-01-24T08:37:59;2.40;99.90
3256;DHT22;1640;48.504;9.224;2023-01-24T08:40:27;2.50;99.90
3256;DHT22;1640;48.504;9.224;2023-01-24T08:42:54;2.50;99.90
3256;DHT22;1640;48.504;9.224;2023-01-24T08:45:21;2.60;99.90
3256;DHT22;1640;48.504;9.224;2023-01-24T08:47:52;2.50;99.90
3256;DHT22;1640;48.504;9.224;2023-01-24T08:50:20;2.50;99.90
3256;DHT22;1640;48.504;9.224;2023-01-24T08:52:48;2.50;99.90
3256;DHT22;1640;48.504;9.224;2023-01-24T08:55:17;2.50;99.90
3256;DHT22;1640;48.504;9.224;2023-01-24T08:57:45;2.50;99.90
3256;DHT22;1640;48.504;9.224;2023-01-24T09:00:13;2.60;99.90
3256;DHT22;1640;48.504;9.224;2023-01-24T09:02:41;2.60;99.90
3256;DHT22;1640;48.504;9.224;2023-01-24T09:05:08;2.60;99.90
3256;DHT22;1640;48.504;9.224;2023-01-24T09:07:36;2.60;99.90
3256;DHT22;1640;48.504;9.224;2023-01-24T09:10:06;2.60;99.90
3256;DHT22;1640;48.504;9.224;2023-01-24T09:12:35;2.60;99.90
3256;DHT22;1640;48.504;9.224;2023-01-24T09:15:02;2.60;99.90
3256;DHT22;1640;48.504;9.224;2023-01-24T09:17:30;2.70;99.90
3256;DHT22;1640;48.504;9.224;2023-01-24T09:19:58;2.80;99.90
3256;DHT22;1640;48.504;9.224;2023-01-24T09:22:26;2.80;99.90
3256;DHT22;1640;48.504;9.224;2023-01-24T09:24:54;2.70;99.90
3256;DHT22;1640;48.504;9.224;2023-01-24T09:27:21;2.80;99.90
3256;DHT22;1640;48.504;9.224;2023-01-24T09:29:50;2.70;99.90
3256;DHT22;1640;48.504;9.224;2023-01-24T09:32:18;2.80;99.90
3256;DHT22;1640;48.504;9.224;2023-01-24T09:34:45;2.80;99.90
3256;DHT22;1640;48.504;9.224;2023-01-24T09:37:16;2.80;99.90
3256;DHT22;1640;48.504;9.224;2023-01-24T09:39:44;2.80;99.90
3256;DHT22;1640;48.504;9.224;2023-01-24T09:42:15;2.80;99.90
3256;DHT22;1640;48.504;9.224;2023-01-24T09:44:59;2.80;99.90
3256;DHT22;1640;48.504;9.224;2023-01-24T09:47:37;2.80;99.90
3256;DHT22;1640;48.504;9.224;2023-01-24T09:50:13;2.80;99.90
3256;DHT22;1640;48.504;9.224;2023-01-24T09:52:45;2.80;99.90
3256;DHT22;1640;48.504;9.224;2023-01-24T09:55:16;2.80;99.90
3256;DHT22;1640;48.504;9.224;2023-01-24T09:57:52;2.80;99.90
3256;DHT22;1640;48.504;9.224;2023-01-24T10:00:26;2.80;99.90
3256;DHT22;1640;48.504;9.224;2023-01-24T10:02:55;2.90;99.90
3256;DHT22;1640;48.504;9.224;2023-01-24T10:05:28;3.00;99.90
3256;DHT22;1640;48.504;9.224;2023-01-24T10:08:20;3.00;99.90
3256;DHT22;1640;48.504;9.224;2023-01-24T10:10:53;3.10;99.90
3256;DHT22;1640;48.504;9.224;2023-01-24T10:13:51;3.10;99.90
3256;DHT22;1640;48.504;9.224;2023-01-24T10:19:34;3.10;99.90
3256;DHT22;1640;48.504;9.224;2023-01-24T10:22:18;3.00;99.90
3256;DHT22;1640;48.504;9.224;2023-01-24T10:24:54;3.10;99.90
3256;DHT22;1640;48.504;9.224;2023-01-24T10:27:27;3.20;99.90
3256;DHT22;1640;48.504;9.224;2023-01-24T10:29:58;3.20;99.90
3256;DHT22;1640;48.504;9.224;2023-01-24T10:32:32;3.30;99.90
3256;DHT22;1640;48.504;9.224;2023-01-24T10:35:09;3.30;99.90
3256;DHT22;1640;48.504;9.224;2023-01-24T10:37:42;3.30;99.90
3256;DHT22;1640;48.504;9.224;2023-01-24T10:40:12;3.30;99.90
3256;DHT22;1640;48.504;9.224;2023-01-24T10:42:40;3.40;99.90
3256;DHT22;1640;48.504;9.224;2023-01-24T10:45:27;3.40;99.90
3256;DHT22;1640;48.504;9.224;2023-01-24T10:48:04;3.40;99.90
3256;DHT22;1640;48.504;9.224;2023-01-24T10:50:41;3.40;99.90
3256;DHT22;1640;48.504;9.224;2023-01-24T10:53:12;3.50;99.90
3256;DHT22;1640;48.504;9.224;2023-01-24T10:55:41;3.60;99.90
3256;DHT22;1640;48.504;9.224;2023-01-24T10:58:23;3.70;99.90
3256;DHT22;1640;48.504;9.224;2023-01-24T11:00:56;3.50;99.90
3256;DHT22;1640;48.504;9.224;2023-01-24T11:03:28;3.50;99.90
3256;DHT22;1640;48.504;9.224;2023-01-24T11:05:57;3.50;99.90
3256;DHT22;1640;48.504;9.224;2023-01-24T11:08:25;3.40;99.90
3256;DHT22;1640;48.504;9.224;2023-01-24T11:10:55;3.40;99.90
3256;DHT22;1640;48.504;9.224;2023-01-24T11:13:30;3.40;99.90
3256;DHT22;1640;48.504;9.224;2023-01-24T11:16:01;3.40;99.90
3256;DHT22;1640;48.504;9.224;2023-01-24T11:18:31;3.50;99.90
3256;DHT22;1640;48.504;9.224;2023-01-24T11:21:11;3.50;99.90
3256;DHT22;1640;48.504;9.224;2023-01-24T11:23:39;3.40;99.90
3256;DHT22;1640;48.504;9.224;2023-01-24T11:26:21;3.40;99.90
3256;DHT22;1640;48.504;9.224;2023-01-24T11:28:56;3.40;99.90
3256;DHT22;1640;48.504;9.224;2023-01-24T11:31:28;3.50;99.90
3256;DHT22;1640;48.504;9.224;2023-01-24T11:37:11;3.60;99.90
3256;DHT22;1640;48.504;9.224;2023-01-24T11:39:46;3.70;99.90
3256;DHT22;1640;48.504;9.224;2023-01-24T11:42:26;3.80;99.90
3256;DHT22;1640;48.504;9.224;2023-01-24T11:47:52;3.90;99.90
3256;DHT22;1640;48.504;9.224;2023-01-24T11:50:34;3.90;99.90
3256;DHT22;1640;48.504;9.224;2023-01-24T11:53:23;3.90;99.90
3256;DHT22;1640;48.504;9.224;2023-01-24T11:56:00;4.00;99.90
3256;DHT22;1640;48.504;9.224;2023-01-24T11:58:47;4.00;99.90
3256;DHT22;1640;48.504;9.224;2023-01-24T12:01:25;4.00;99.90
3256;DHT22;1640;48.504;9.224;2023-01-24T12:04:24;3.80;99.90
3256;DHT22;1640;48.504;9.224;2023-01-24T12:07:02;3.80;99.90
3256;DHT22;1640;48.504;9.224;2023-01-24T12:09:37;3.80;99.90
3256;DHT22;1640;48.504;9.224;2023-01-24T12:12:12;3.90;99.90
3256;DHT22;1640;48.504;9.224;2023-01-24T12:15:02;3.90;99.90
3256;DHT22;1640;48.504;9.224;2023-01-24T12:20:58;3.80;99.90
3256;DHT22;1640;48.504;9.224;2023-01-24T12:23:34;3.80;99.90
3256;DHT22;1640;48.504;9.224;2023-01-24T12:26:07;3.80;99.90
3256;DHT22;1640;48.504;9.224;2023-01-24T12:28:40;3.80;99.90
3256;DHT22;1640;48.504;9.224;2023-01-24T12:31:15;3.80;99.90
3256;DHT22;1640;48.504;9.224;2023-01-24T12:33:46;3.80;99.90
3256;DHT22;1640;48.504;9.224;2023-01-24T12:36:22;3.90;99.90
3256;DHT22;1640;48.504;9.224;2023-01-24T12:38:55;4.00;99.90
3256;DHT22;1640;48.504;9.224;2023-01-24T12:41:30;3.90;99.90
3256;DHT22;1640;48.504;9.224;2023-01-24T12:44:03;3.80;99.90
3256;DHT22;1640;48.504;9.224;2023-01-24T12:46:41;3.90;99.90
3256;DHT22;1640;48.504;9.224;2023-01-24T12:49:19;4.00;99.90
3256;DHT22;1640;48.504;9.224;2023-01-24T12:51:55;4.00;99.90
3256;DHT22;1640;48.504;9.224;2023-01-24T12:54:30;3.80;99.90
3256;DHT22;1640;48.504;9.224;2023-01-24T12:57:04;3.80;99.90
3256;DHT22;1640;48.504;9.224;2023-01-24T12:59:32;3.80;99.90
3256;DHT22;1640;48.504;9.224;2023-01-24T13:02:23;3.70;99.90
3256;DHT22;1640;48.504;9.224;2023-01-24T13:05:01;3.80;99.90
3256;DHT22;1640;48.504;9.224;2023-01-24T13:07:41;3.80;99.90
3256;DHT22;1640;48.504;9.224;2023-01-24T13:10:18;3.80;99.90
3256;DHT22;1640;48.504;9.224;2023-01-24T13:12:47;3.80;99.90
3256;DHT22;1640;48.504;9.224;2023-01-24T13:15:18;3.80;99.90
3256;DHT22;1640;48.504;9.224;2023-01-24T13:18:09;3.90;99.90
3256;DHT22;1640;48.504;9.224;2023-01-24T13:21:02;4.10;99.90
3256;DHT22;1640;48.504;9.224;2023-01-24T13:26:37;4.00;99.90
3256;DHT22;1640;48.504;9.224;2023-01-24T13:29:24;3.90;99.90
3256;DHT22;1640;48.504;9.224;2023-01-24T13:32:00;3.90;99.90
3256;DHT22;1640;48.504;9.224;2023-01-24T13:34:34;3.90;99.90
3256;DHT22;1640;48.504;9.224;2023-01-24T13:37:03;3.90;99.90
3256;DHT22;1640;48.504;9.224;2023-01-24T13:39:33;3.90;99.90
3256;DHT22;1640;48.504;9.224;2023-01-24T13:42:05;3.90;99.90
3256;DHT22;1640;48.504;9.224;2023-01-24T13:44:33;3.90;99.90
3256;DHT22;1640;48.504;9.224;2023-01-24T13:47:23;3.90;99.90
3256;DHT22;1640;48.504;9.224;2023-01-24T13:50:14;3.80;99.90
3256;DHT22;1640;48.504;9.224;2023-01-24T13:52:50;3.80;99.90
3256;DHT22;1640;48.504;9.224;2023-01-24T13:58:29;3.80;99.90
3256;DHT22;1640;48.504;9.224;2023-01-24T14:00:58;3.70;99.90
3256;DHT22;1640;48.504;9.224;2023-01-24T14:03:30;3.80;99.90
3256;DHT22;1640;48.504;9.224;2023-01-24T14:06:11;3.70;99.90
3256;DHT22;1640;48.504;9.224;2023-01-24T14:11:53;3.60;99.90
3256;DHT22;1640;48.504;9.224;2023-01-24T14:15:02;3.60;99.90
3256;DHT22;1640;48.504;9.224;2023-01-24T14:17:48;3.60;99.90
3256;DHT22;1640;48.504;9.224;2023-01-24T14:20:34;3.60;99.90
3256;DHT22;1640;48.504;9.224;2023-01-24T14:23:05;3.60;99.90
3256;DHT22;1640;48.504;9.224;2023-01-24T14:25:46;3.70;99.90
3256;DHT22;1640;48.504;9.224;2023-01-24T14:28:20;3.60;99.90
3256;DHT22;1640;48.504;9.224;2023-01-24T14:30:55;3.70;99.90
3256;DHT22;1640;48.504;9.224;2023-01-24T14:33:34;3.70;99.90
3256;DHT22;1640;48.504;9.224;2023-01-24T14:36:12;3.80;99.90
3256;DHT22;1640;48.504;9.224;2023-01-24T14:38:40;3.80;99.90
3256;DHT22;1640;48.504;9.224;2023-01-24T14:41:19;3.70;99.90
3256;DHT22;1640;48.504;9.224;2023-01-24T14:43:48;3.70;99.90
3256;DHT22;1640;48.504;9.224;2023-01-24T14:46:21;3.70;99.90
3256;DHT22;1640;48.504;9.224;2023-01-24T14:48:49;3.70;99.90
3256;DHT22;1640;48.504;9.224;2023-01-24T14:51:18;3.80;99.90
3256;DHT22;1640;48.504;9.224;2023-01-24T14:53:47;3.80;99.90
3256;DHT22;1640;48.504;9.224;2023-01-24T14:56:15;3.70;99.90
3256;DHT22;1640;48.504;9.224;2023-01-24T14:58:43;3.60;99.90
3256;DHT22;1640;48.504;9.224;2023-01-24T15:01:27;3.60;99.90
3256;DHT22;1640;48.504;9.224;2023-01-24T15:03:55;3.60;99.90
3256;DHT22;1640;48.504;9.224;2023-01-24T15:06:24;3.60;99.90
3256;DHT22;1640;48.504;9.224;2023-01-24T15:08:56;3.60;99.90
3256;DHT22;1640;48.504;9.224;2023-01-24T15:11:26;3.60;99.90
3256;DHT22;1640;48.504;9.224;2023-01-24T15:13:57;3.60;99.90
3256;DHT22;1640;48.504;9.224;2023-01-24T15:16:33;3.60;99.90
3256;DHT22;1640;48.504;9.224;2023-01-24T15:19:05;3.60;99.90
3256;DHT22;1640;48.504;9.224;2023-01-24T15:21:37;3.60;99.90
3256;DHT22;1640;48.504;9.224;2023-01-24T15:24:06;3.60;99.90
3256;DHT22;1640;48.504;9.224;2023-01-24T15:26:41;3.60;99.90
3256;DHT22;1640;48.504;9.224;2023-01-24T15:32:45;3.60;99.90
3256;DHT22;1640;48.504;9.224;2023-01-24T15:35:28;3.50;99.90
3256;DHT22;1640;48.504;9.224;2023-01-24T15:38:15;3.50;99.90
3256;DHT22;1640;48.504;9.224;2023-01-24T15:40:48;3.50;99.90
3256;DHT22;1640;48.504;9.224;2023-01-24T15:43:20;3.60;99.90
3256;DHT22;1640;48.504;9.224;2023-01-24T15:46:05;3.50;99.90
3256;DHT22;1640;48.504;9.224;2023-01-24T15:49:00;3.50;99.90
3256;DHT22;1640;48.504;9.224;2023-01-24T15:51:31;3.50;99.90
3256;DHT22;1640;48.504;9.224;2023-01-24T15:53:59;3.50;99.90
3256;DHT22;1640;48.504;9.224;2023-01-24T15:56:28;3.60;99.90
3256;DHT22;1640;48.504;9.224;2023-01-24T15:58:56;3.60;99.90
3256;DHT22;1640;48.504;9.224;2023-01-24T16:01:29;3.60;99.90
3256;DHT22;1640;48.504;9.224;2023-01-24T16:04:10;3.60;99.90
3256;DHT22;1640;48.504;9.224;2023-01-24T16:06:39;3.60;99.90
3256;DHT22;1640;48.504;9.224;2023-01-24T16:09:07;3.60;99.90
3256;DHT22;1640;48.504;9.224;2023-01-24T16:11:36;3.50;99.90
3256;DHT22;1640;48.504;9.224;2023-01-24T16:14:05;3.50;99.90
3256;DHT22;1640;48.504;9.224;2023-01-24T16:16:34;3.50;99.90
3256;DHT22;1640;48.504;9.224;2023-01-24T16:19:11;3.50;99.90
3256;DHT22;1640;48.504;9.224;2023-01-24T16:21:40;3.40;99.90
3256;DHT22;1640;48.504;9.224;2023-01-24T16:24:07;3.40;99.90
3256;DHT22;1640;48.504;9.224;2023-01-24T16:26:35;3.40;99.90
3256;DHT22;1640;48.504;9.224;2023-01-24T16:29:02;3.40;99.90
3256;DHT22;1640;48.504;9.224;2023-01-24T16:31:30;3.40;99.90
3256;DHT22;1640;48.504;9.224;2023-01-24T16:33:57;3.40;99.90
3256;DHT22;1640;48.504;9.224;2023-01-24T16:36:26;3.50;99.90
3256;DHT22;1640;48.504;9.224;2023-01-24T16:38:54;3.50;99.90
3256;DHT22;1640;48.504;9.224;2023-01-24T16:41:21;3.40;99.90
3256;DHT22;1640;48.504;9.224;2023-01-24T16:43:48;3.40;99.90
3256;DHT22;1640;48.504;9.224;2023-01-24T16:46:18;3.40;99.90
3256;DHT22;1640;48.504;9.224;2023-01-24T16:48:46;3.40;99.90
3256;DHT22;1640;48.504;9.224;2023-01-24T16:51:14;3.40;99.90
3256;DHT22;1640;48.504;9.224;2023-01-24T16:53:43;3.40;99.90
3256;DHT22;1640;48.504;9.224;2023-01-24T16:56:11;3.40;99.90
3256;DHT22;1640;48.504;9.224;2023-01-24T16:58:38;3.40;99.90
3256;DHT22;1640;48.504;9.224;2023-01-24T17:01:07;3.40;99.90
3256;DHT22;1640;48.504;9.224;2023-01-24T17:03:35;3.30;99.90
3256;DHT22;1640;48.504;9.224;2023-01-24T17:06:05;3.30;99.90
3256;DHT22;1640;48.504;9.224;2023-01-24T17:08:33;3.30;99.90
3256;DHT22;1640;48.504;9.224;2023-01-24T17:11:04;3.30;99.90